Latest Coastal Weather Observations for Warruwi

IDD60701

Issued at 10:41 pm CST Sunday 26 April 2015 (issued every 10 minutes, with the page automatically refreshed every 10 minutes)

About coastal observations | Map of coastal stations | Coastal observations for NT | Marine services | Other Formats
Station Details ID: 014401 Name: WARRUWI AIRPORT Lat: -11.65 Lon: 133.38 Height: 19.2 m
Data from the previous 72 hours. | See also: Recent months at Warruwi
Date/Time
CST
Temp

°C
Wind Pressure Rain
since 9am
mm
Weather Cloud Vis
km
Sea
Height
m
Swell
Dir
 
Speed
knots
Gust
knots
hPa Trend Height
m
Period
s
Dir
26/10:30pm 27.5 SE 9 13 1013.7 - 0.0 - - - - - - -
26/10:00pm 27.9 SE 9 13 1013.7 - 0.0 - - - - - - -
26/09:30pm 28.3 SE 9 13 1013.6 - 0.0 - - - - - - -
26/09:00pm 28.3 SE 7 10 1013.3 - 0.0 - - - - - - -
26/08:30pm 28.3 SE 6 9 1013.0 - 0.0 - - - - - - -
26/08:00pm 28.2 SE 4 6 1012.5 - 0.0 - - - - - - -
26/07:30pm 28.3 SE 5 7 1012.0 - 0.0 - - - - - - -
26/07:00pm 28.5 SE 5 6 1011.6 - 0.0 - - - - - - -
26/06:30pm 28.9 SE 6 8 1011.4 - 0.0 - - - - - - -
26/06:00pm 29.3 SE 7 10 1011.1 - 0.0 - - - - - - -
26/05:30pm 29.9 SE 8 12 1011.0 - 0.0 - - - - - - -
26/05:00pm 30.3 SE 8 12 1010.7 - 0.0 - - - - - - -
26/04:30pm 30.6 SE 9 13 1010.5 - 0.0 - - - - - - -
26/04:00pm 30.9 ESE 10 14 1010.6 - 0.0 - - - - - - -
26/03:30pm 31.1 ESE 9 14 1010.6 - 0.0 - - - - - - -
26/03:00pm 31.0 ESE 9 12 1010.7 - 0.0 - - - - - - -
26/02:30pm 31.0 ESE 12 17 1011.0 - 0.0 - - - - - - -
26/02:00pm 31.2 ESE 12 15 1011.4 - 0.0 - - - - - - -
26/01:30pm 30.9 ESE 11 16 1011.6 - 0.0 - - - - - - -
26/01:00pm 30.6 ESE 13 17 1011.8 - 0.0 - - - - - - -
26/12:30pm 31.0 ESE 13 19 1012.1 - 0.0 - - - - - - -
26/12:00pm 29.8 ESE 12 17 1012.4 - 0.0 - - - - - - -
26/11:30am 29.7 ESE 11 16 1012.8 - 0.0 - - - - - - -
26/11:00am 29.4 SE 11 17 1013.1 - 0.0 - - - - - - -
26/10:30am 29.3 SE 12 17 1013.3 - 0.0 - - - - - - -
26/10:00am 28.4 SE 10 13 1013.3 - 0.0 - - - - - - -
26/09:30am 27.4 SE 11 14 1013.2 - 0.0 - - - - - - -
26/09:00am 26.5 SE 12 18 1012.7 - 0.0 - - - - - - -
26/08:30am 26.2 SE 11 16 1012.6 - 0.0 - - - - - - -
26/08:00am 25.8 SE 8 13 1012.3 - 0.0 - - - - - - -
26/07:30am 25.3 SE 7 10 1012.3 - 0.0 - - - - - - -
26/07:00am 24.5 SE 6 9 1012.0 - 0.0 - - - - - - -
26/06:30am 24.5 SE 7 11 1011.7 - 0.0 - - - - - - -
26/06:00am 25.1 ESE 9 13 1011.6 - 0.0 - - - - - - -
26/05:30am 25.3 ESE 10 15 1011.7 - 0.0 - - - - - - -
26/05:00am 25.4 ESE 11 15 1011.5 - 0.0 - - - - - - -
26/04:30am 25.5 ESE 10 15 1011.5 - 0.0 - - - - - - -
26/04:00am 25.6 ESE 9 12 1011.6 - 0.0 - - - - - - -
26/03:30am 25.4 SE 7 10 1011.4 - 0.0 - - - - - - -
26/03:00am 25.4 ESE 7 10 1011.5 - 0.0 - - - - - - -
26/02:30am 25.6 SE 8 13 1011.6 - 0.0 - - - - - - -
26/02:00am 26.2 SE 9 15 1011.7 - 0.0 - - - - - - -
26/01:30am 26.4 ESE 10 15 1011.7 - 0.0 - - - - - - -
26/01:00am 26.9 ESE 11 15 1011.8 - 0.0 - - - - - - -
26/12:30am 27.4 ESE 12 19 1011.9 - 0.0 - - - - - - -
26/12:00am 27.7 ESE 12 19 1012.2 - 0.0 - - - - - - -
 
Date/Time
CST
Temp

°C
Wind Pressure Rain
since 9am
mm
Weather Cloud Vis
km
Sea
Height
m
Swell
Dir
 
Speed
knots
Gust
knots
hPa Trend Height
m
Period
s
Dir
25/11:30pm 28.0 ESE 11 16 1012.1 - 0.0 - - - - - - -
25/11:00pm 28.0 ESE 9 14 1012.0 - 0.0 - - - - - - -
25/10:30pm 27.8 ESE 7 11 1012.0 - 0.0 - - - - - - -
25/10:00pm 27.9 ESE 6 10 1012.1 - 0.0 - - - - - - -
25/09:30pm 27.9 E 6 9 1011.7 - 0.0 - - - - - - -
25/09:00pm 27.6 E 5 7 1011.6 - 0.0 - - - - - - -
25/08:30pm 27.4 ENE 4 7 1011.4 - 0.0 - - - - - - -
25/08:00pm 26.8 ENE 3 4 1010.8 - 0.0 - - - - - - -
25/07:30pm 27.2 ENE 3 5 1010.5 - 0.0 - - - - - - -
25/07:00pm 27.9 ENE 5 8 1010.3 - 0.0 - - - - - - -
25/06:30pm 27.9 ENE 4 7 1009.9 - 0.0 - - - - - - -
25/06:00pm 28.6 ENE 5 8 1009.6 - 0.0 - - - - - - -
25/05:30pm 29.2 ENE 4 9 1009.5 - 0.0 - - - - - - -
25/05:00pm 29.9 ENE 5 8 1009.2 - 0.0 - - - - - - -
25/04:30pm 30.2 E 5 8 1009.0 - 0.0 - - - - - - -
25/04:00pm 30.3 ENE 5 9 1009.0 - 0.0 - - - - - - -
25/03:30pm 30.9 ENE 5 8 1009.0 - 0.0 - - - - - - -
25/03:00pm 30.7 E 8 10 1009.1 - 0.0 - - - - - - -
25/02:30pm 30.4 E 8 11 1009.2 - 0.0 - - - - - - -
25/02:00pm 30.5 E 7 10 1009.4 - 0.0 - - - - - - -
25/01:30pm 30.6 ENE 7 11 1009.9 - 0.0 - - - - - - -
25/01:00pm 30.3 E 7 10 1010.4 - 0.0 - - - - - - -
25/12:30pm 29.8 ENE 6 8 1010.9 - 0.0 - - - - - - -
25/12:00pm 29.6 ENE 5 8 1011.2 - 0.0 - - - - - - -
25/11:30am 29.7 E 5 8 1011.4 - 0.0 - - - - - - -
25/11:00am 29.3 ESE 7 9 1011.6 - 0.0 - - - - - - -
25/10:30am 29.4 ESE 6 10 1011.7 - 0.0 - - - - - - -
25/10:00am 28.8 ESE 6 9 1011.8 - 0.0 - - - - - - -
25/09:30am 28.3 ESE 7 9 1011.5 - 0.0 - - - - - - -
25/09:00am 27.8 SE 6 9 1011.4 - 0.0 - - - - - - -
25/08:30am 27.1 SE 6 9 1011.3 - 0.0 - - - - - - -
25/08:00am 26.8 SE 4 6 1011.0 - 0.0 - - - - - - -
25/07:30am 25.9 SE 3 6 1010.6 - 0.0 - - - - - - -
25/07:00am 23.6 CALM 0 0 1010.5 - 0.0 - - - - - - -
25/06:30am 24.3 SE 3 4 1010.3 - 0.0 - - - - - - -
25/06:00am 24.9 ESE 3 5 1010.4 - 0.0 - - - - - - -
25/05:30am 25.4 ESE 4 6 1010.4 - 0.0 - - - - - - -
25/05:00am 25.7 SE 4 5 1010.3 - 0.0 - - - - - - -
25/04:30am 25.8 SE 4 7 1010.5 - 0.0 - - - - - - -
25/04:00am 26.2 SE 6 9 1010.4 - 0.0 - - - - - - -
25/03:30am 26.1 SE 7 10 1010.4 - 0.0 - - - - - - -
25/03:00am 26.1 SE 5 8 1010.5 - 0.0 - - - - - - -
25/02:30am 25.5 SSE 2 4 1010.4 - 0.0 - - - - - - -
25/02:00am 25.5 S 3 3 1010.4 - 0.0 - - - - - - -
25/01:30am 25.6 S 3 4 1010.4 - 0.0 - - - - - - -
25/01:00am 25.1 SSW 2 3 1010.7 - 0.0 - - - - - - -
25/12:30am 24.8 CALM 0 0 1010.7 - 0.0 - - - - - - -
25/12:00am 25.2 CALM 0 0 1010.9 - 0.0 - - - - - - -
 
Date/Time
CST
Temp

°C
Wind Pressure Rain
since 9am
mm
Weather Cloud Vis
km
Sea
Height
m
Swell
Dir
 
Speed
knots
Gust
knots
hPa Trend Height
m
Period
s
Dir
24/11:30pm 25.4 CALM 0 0 1010.9 - 0.0 - - - - - - -
24/11:00pm 26.3 NE 2 5 1010.8 - 0.0 - - - - - - -
24/10:30pm 27.1 ENE 2 3 1010.8 - 0.0 - - - - - - -
24/10:00pm 27.2 ENE 3 4 1010.9 - 0.0 - - - - - - -
24/09:30pm 27.3 ENE 3 6 1011.0 - 0.0 - - - - - - -
24/09:00pm 27.1 ENE 3 4 1010.9 - 0.0 - - - - - - -
24/08:30pm 27.3 ENE 3 4 1010.5 - 0.0 - - - - - - -
24/08:00pm 27.5 NE 3 5 1010.1 - 0.0 - - - - - - -
24/07:30pm 27.7 ENE 3 5 1009.7 - 0.0 - - - - - - -
24/07:00pm 27.9 NE 3 6 1009.4 - 0.0 - - - - - - -
24/06:30pm 28.2 NE 3 7 1009.2 - 0.0 - - - - - - -
24/06:00pm 29.1 ENE 5 9 1008.8 - 0.0 - - - - - - -
24/05:30pm 29.8 ENE 4 10 1008.6 - 0.0 - - - - - - -
24/05:00pm 30.0 ENE 5 9 1008.4 - 0.0 - - - - - - -
24/04:30pm 30.4 ENE 7 11 1008.2 - 0.0 - - - - - - -
24/04:00pm 30.8 E 7 11 1008.2 - 0.0 - - - - - - -
24/03:30pm 31.2 E 7 10 1008.4 - 0.0 - - - - - - -
24/03:00pm 30.9 E 7 10 1008.4 - 0.0 - - - - - - -
24/02:30pm 31.4 E 6 10 1008.7 - 0.0 - - - - - - -
24/02:00pm 30.8 E 6 9 1009.1 - 0.0 - - - - - - -
24/01:30pm 30.4 E 6 9 1009.2 - 0.0 - - - - - - -
24/01:00pm 30.0 ENE 6 9 1009.7 - 0.0 - - - - - - -
24/12:30pm 30.1 E 6 10 1010.3 - 0.0 - - - - - - -
24/12:00pm 30.3 E 6 9 1010.6 - 0.0 - - - - - - -
24/11:30am 30.3 E 6 9 1010.8 - 0.0 - - - - - - -
24/11:00am 29.8 ESE 7 9 1011.2 - 0.0 - - - - - - -
24/10:30am 29.7 E 7 11 1011.4 - 0.0 - - - - - - -
24/10:00am 29.5 E 8 10 1011.7 - 0.0 - - - - - - -
24/09:30am 29.1 E 7 9 1011.8 - 0.0 - - - - - - -
24/09:00am 29.0 E 6 9 1011.8 - 0.0 - - - - - - -
24/08:30am 28.4 E 8 10 1011.4 - 0.0 - - - - - - -
24/08:00am 27.8 ESE 7 10 1011.1 - 0.0 - - - - - - -
24/07:30am 27.0 ESE 6 8 1011.0 - 0.0 - - - - - - -
24/07:00am 26.2 SE 6 9 1011.1 - 0.0 - - - - - - -
24/06:30am 26.3 SE 8 10 1010.7 - 0.0 - - - - - - -
24/06:00am 26.4 ESE 8 12 1010.4 - 0.0 - - - - - - -
24/05:30am 26.4 SE 8 12 1010.2 - 0.0 - - - - - - -
24/05:00am 26.5 SE 7 11 1010.1 - 0.0 - - - - - - -
24/04:30am 26.0 SE 4 7 1010.1 - 0.0 - - - - - - -
24/04:00am 25.0 ESE 1 2 1010.2 - 0.0 - - - - - - -
24/03:30am 25.1 SSW 1 1 1010.0 - 0.0 - - - - - - -
24/03:00am 25.5 SW 2 3 1009.8 - 0.0 - - - - - - -
24/02:30am 25.8 SSW 2 3 1009.9 - 0.0 - - - - - - -
24/02:00am 25.7 SSW 2 3 1009.9 - 0.0 - - - - - - -
24/01:30am 25.6 SSW 3 4 1010.0 - 0.0 - - - - - - -
24/01:00am 25.2 CALM 0 0 1010.3 - 0.0 - - - - - - -
24/12:30am 25.1 CALM 0 0 1010.5 - 0.0 - - - - - - -
24/12:00am 25.3 CALM 0 0 1010.5 - 0.0 - - - - - - -
 
Date/Time
CST
Temp

°C
Wind Pressure Rain
since 9am
mm
Weather Cloud Vis
km
Sea
Height
m
Swell
Dir
 
Speed
knots
Gust
knots
hPa Trend Height
m
Period
s
Dir
23/11:30pm 25.3 CALM 0 0 1010.5 - 0.0 - - - - - - -
23/11:00pm 25.5 CALM 0 0 1010.4 - 0.0 - - - - - - -

Other Formats:

Comma delimited format used in spreadsheet applications
http://www.bom.gov.au/fwo/IDD60701/IDD60701.94139.axf

JavaScript Object Notation format (JSON) in row-major order
http://www.bom.gov.au/fwo/IDD60701/IDD60701.94139.json